sensor_id;sensor_type;location;lat;lon;timestamp;pressure;altitude;pressure_sealevel;temperature;humidity
54194;BME280;40102;50.906;6.972;2023-06-14T00:01:35;100626.00;;;24.56;33.73
54194;BME280;40102;50.906;6.972;2023-06-14T00:04:01;100618.81;;;24.55;34.05
54194;BME280;40102;50.906;6.972;2023-06-14T00:06:28;100627.69;;;24.57;33.94
54194;BME280;40102;50.906;6.972;2023-06-14T00:08:53;100621.38;;;24.57;34.15
54194;BME280;40102;50.906;6.972;2023-06-14T00:11:19;100624.97;;;24.57;34.02
54194;BME280;40102;50.906;6.972;2023-06-14T00:13:44;100624.28;;;24.55;34.46
54194;BME280;40102;50.906;6.972;2023-06-14T00:16:10;100625.31;;;24.54;34.48
54194;BME280;40102;50.906;6.972;2023-06-14T00:18:36;100620.56;;;24.48;34.62
54194;BME280;40102;50.906;6.972;2023-06-14T00:21:02;100629.44;;;24.50;34.85
54194;BME280;40102;50.906;6.972;2023-06-14T00:23:29;100627.06;;;24.47;34.55
54194;BME280;40102;50.906;6.972;2023-06-14T00:25:54;100624.69;;;24.44;34.47
54194;BME280;40102;50.906;6.972;2023-06-14T00:28:20;100637.66;;;24.42;34.54
54194;BME280;40102;50.906;6.972;2023-06-14T00:33:11;100641.28;;;24.34;34.78
54194;BME280;40102;50.906;6.972;2023-06-14T00:35:37;100632.41;;;24.32;35.25
54194;BME280;40102;50.906;6.972;2023-06-14T00:38:02;100635.50;;;24.29;34.90
54194;BME280;40102;50.906;6.972;2023-06-14T00:40:27;100634.13;;;24.25;35.07
54194;BME280;40102;50.906;6.972;2023-06-14T00:42:53;100640.09;;;24.20;35.46
54194;BME280;40102;50.906;6.972;2023-06-14T00:45:18;100645.25;;;24.15;36.01
54194;BME280;40102;50.906;6.972;2023-06-14T00:47:45;100646.13;;;24.08;36.20
54194;BME280;40102;50.906;6.972;2023-06-14T00:50:11;100639.47;;;24.02;36.57
54194;BME280;40102;50.906;6.972;2023-06-14T00:52:36;100640.84;;;23.98;36.55
54194;BME280;40102;50.906;6.972;2023-06-14T00:55:02;100636.59;;;23.96;36.45
54194;BME280;40102;50.906;6.972;2023-06-14T00:57:28;100644.44;;;23.99;36.19
54194;BME280;40102;50.906;6.972;2023-06-14T00:59:55;100641.69;;;23.99;36.37
54194;BME280;40102;50.906;6.972;2023-06-14T01:02:20;100644.25;;;24.00;36.15
54194;BME280;40102;50.906;6.972;2023-06-14T01:04:47;100654.34;;;24.00;36.21
54194;BME280;40102;50.906;6.972;2023-06-14T01:07:25;100649.03;;;23.98;36.50
54194;BME280;40102;50.906;6.972;2023-06-14T01:15:12;100654.69;;;23.97;36.23
54194;BME280;40102;50.906;6.972;2023-06-14T01:17:39;100661.50;;;23.93;36.22
54194;BME280;40102;50.906;6.972;2023-06-14T01:20:07;100665.09;;;23.93;36.09
54194;BME280;40102;50.906;6.972;2023-06-14T01:22:55;100658.59;;;23.94;35.98
54194;BME280;40102;50.906;6.972;2023-06-14T01:25:24;100667.66;;;23.95;35.73
54194;BME280;40102;50.906;6.972;2023-06-14T01:27:53;100670.56;;;23.93;35.82
54194;BME280;40102;50.906;6.972;2023-06-14T01:30:20;100669.53;;;23.94;35.79
54194;BME280;40102;50.906;6.972;2023-06-14T01:32:47;100667.16;;;23.91;35.92
54194;BME280;40102;50.906;6.972;2023-06-14T01:35:16;100667.50;;;23.88;36.17
54194;BME280;40102;50.906;6.972;2023-06-14T01:37:43;100670.22;;;23.88;36.13
54194;BME280;40102;50.906;6.972;2023-06-14T01:40:09;100666.13;;;23.84;36.43
54194;BME280;40102;50.906;6.972;2023-06-14T01:42:37;100667.69;;;23.78;36.26
54194;BME280;40102;50.906;6.972;2023-06-14T01:45:04;100679.97;;;23.74;36.25
54194;BME280;40102;50.906;6.972;2023-06-14T01:47:31;100672.28;;;23.70;36.28
54194;BME280;40102;50.906;6.972;2023-06-14T01:49:58;100676.38;;;23.66;36.42
54194;BME280;40102;50.906;6.972;2023-06-14T01:52:23;100676.72;;;23.63;36.65
54194;BME280;40102;50.906;6.972;2023-06-14T01:54:50;100674.13;;;23.53;37.17
54194;BME280;40102;50.906;6.972;2023-06-14T01:57:19;100669.69;;;23.44;37.32
54194;BME280;40102;50.906;6.972;2023-06-14T01:59:45;100680.09;;;23.40;37.35
54194;BME280;40102;50.906;6.972;2023-06-14T02:02:13;100675.47;;;23.24;37.74
54194;BME280;40102;50.906;6.972;2023-06-14T02:04:39;100673.06;;;23.13;38.02
54194;BME280;40102;50.906;6.972;2023-06-14T02:07:05;100677.84;;;23.11;38.08
54194;BME280;40102;50.906;6.972;2023-06-14T02:09:30;100669.97;;;23.08;38.39
54194;BME280;40102;50.906;6.972;2023-06-14T02:11:58;100669.47;;;23.13;37.83
54194;BME280;40102;50.906;6.972;2023-06-14T02:14:24;100666.41;;;23.16;37.97
54194;BME280;40102;50.906;6.972;2023-06-14T02:16:49;100670.19;;;23.23;37.98
54194;BME280;40102;50.906;6.972;2023-06-14T02:19:16;100670.53;;;23.28;37.66
54194;BME280;40102;50.906;6.972;2023-06-14T02:21:42;100668.47;;;23.30;37.84
54194;BME280;40102;50.906;6.972;2023-06-14T02:24:08;100671.22;;;23.30;37.52
54194;BME280;40102;50.906;6.972;2023-06-14T02:26:33;100674.97;;;23.29;37.84
54194;BME280;40102;50.906;6.972;2023-06-14T02:28:59;100669.50;;;23.29;37.62
54194;BME280;40102;50.906;6.972;2023-06-14T02:31:25;100666.09;;;23.27;37.44
54194;BME280;40102;50.906;6.972;2023-06-14T02:33:50;100671.72;;;23.25;37.04
54194;BME280;40102;50.906;6.972;2023-06-14T02:36:15;100671.72;;;23.25;37.06
54194;BME280;40102;50.906;6.972;2023-06-14T02:38:41;100684.50;;;23.25;37.65
54194;BME280;40102;50.906;6.972;2023-06-14T02:41:07;100681.78;;;23.25;37.45
54194;BME280;40102;50.906;6.972;2023-06-14T02:43:32;100684.19;;;23.28;37.70
54194;BME280;40102;50.906;6.972;2023-06-14T02:45:57;100683.50;;;23.26;37.96
54194;BME280;40102;50.906;6.972;2023-06-14T02:48:23;100689.13;;;23.24;37.77
54194;BME280;40102;50.906;6.972;2023-06-14T02:50:48;100687.75;;;23.20;37.62
54194;BME280;40102;50.906;6.972;2023-06-14T02:53:14;100687.22;;;23.17;37.99
54194;BME280;40102;50.906;6.972;2023-06-14T02:55:39;100692.50;;;23.18;38.09
54194;BME280;40102;50.906;6.972;2023-06-14T02:58:06;100692.00;;;23.15;37.87
54194;BME280;40102;50.906;6.972;2023-06-14T03:00:31;100691.31;;;23.13;37.85
54194;BME280;40102;50.906;6.972;2023-06-14T03:02:56;100693.50;;;23.09;38.35
54194;BME280;40102;50.906;6.972;2023-06-14T03:05:22;100698.97;;;23.09;38.21
54194;BME280;40102;50.906;6.972;2023-06-14T03:07:48;100706.63;;;23.06;38.43
54194;BME280;40102;50.906;6.972;2023-06-14T03:10:18;100706.81;;;23.04;38.58
54194;BME280;40102;50.906;6.972;2023-06-14T03:12:43;100699.97;;;23.00;38.44
54194;BME280;40102;50.906;6.972;2023-06-14T03:15:10;100707.78;;;22.95;38.85
54194;BME280;40102;50.906;6.972;2023-06-14T03:17:36;100715.28;;;22.93;38.50
54194;BME280;40102;50.906;6.972;2023-06-14T03:20:04;100708.47;;;22.89;38.86
54194;BME280;40102;50.906;6.972;2023-06-14T03:22:30;100709.47;;;22.88;38.79
54194;BME280;40102;50.906;6.972;2023-06-14T03:24:57;100713.06;;;22.88;38.71
54194;BME280;40102;50.906;6.972;2023-06-14T03:27:24;100717.81;;;22.86;38.90
54194;BME280;40102;50.906;6.972;2023-06-14T03:29:49;100715.09;;;22.86;39.00
54194;BME280;40102;50.906;6.972;2023-06-14T03:32:15;100719.84;;;22.84;38.90
54194;BME280;40102;50.906;6.972;2023-06-14T03:34:40;100722.41;;;22.86;38.75
54194;BME280;40102;50.906;6.972;2023-06-14T03:37:06;100717.13;;;22.84;38.97
54194;BME280;40102;50.906;6.972;2023-06-14T03:39:31;100725.31;;;22.84;38.99
54194;BME280;40102;50.906;6.972;2023-06-14T03:41:57;100724.63;;;22.82;39.27
54194;BME280;40102;50.906;6.972;2023-06-14T03:44:22;100729.53;;;22.79;39.25
54194;BME280;40102;50.906;6.972;2023-06-14T03:46:47;100732.25;;;22.79;39.42
54194;BME280;40102;50.906;6.972;2023-06-14T03:49:13;100736.00;;;22.78;39.60
54194;BME280;40102;50.906;6.972;2023-06-14T03:51:41;100740.75;;;22.76;39.68
54194;BME280;40102;50.906;6.972;2023-06-14T03:54:10;100735.78;;;22.71;39.70
54194;BME280;40102;50.906;6.972;2023-06-14T03:56:35;100739.53;;;22.70;39.69
54194;BME280;40102;50.906;6.972;2023-06-14T03:59:01;100733.38;;;22.68;39.94
54194;BME280;40102;50.906;6.972;2023-06-14T04:01:27;100736.28;;;22.67;40.63
54194;BME280;40102;50.906;6.972;2023-06-14T04:03:57;100746.16;;;22.68;40.52
54194;BME280;40102;50.906;6.972;2023-06-14T04:06:23;100734.72;;;22.64;40.53
54194;BME280;40102;50.906;6.972;2023-06-14T04:08:50;100738.31;;;22.65;40.88
54194;BME280;40102;50.906;6.972;2023-06-14T04:11:17;100743.06;;;22.62;40.44
54194;BME280;40102;50.906;6.972;2023-06-14T04:13:44;100748.38;;;22.64;40.85
54194;BME280;40102;50.906;6.972;2023-06-14T04:16:09;100753.13;;;22.62;40.90
54194;BME280;40102;50.906;6.972;2023-06-14T04:18:34;100755.16;;;22.60;40.91
54194;BME280;40102;50.906;6.972;2023-06-14T04:21:00;100760.47;;;22.36;41.46
54194;BME280;40102;50.906;6.972;2023-06-14T04:23:25;100763.28;;;22.26;41.34
54194;BME280;40102;50.906;6.972;2023-06-14T04:25:53;100767.72;;;22.27;41.71
54194;BME280;40102;50.906;6.972;2023-06-14T04:28:19;100758.53;;;22.28;41.50
54194;BME280;40102;50.906;6.972;2023-06-14T04:30:44;100770.50;;;22.35;41.14
54194;BME280;40102;50.906;6.972;2023-06-14T04:33:10;100770.19;;;22.38;41.05
54194;BME280;40102;50.906;6.972;2023-06-14T04:35:36;100767.31;;;22.40;40.83
54194;BME280;40102;50.906;6.972;2023-06-14T04:38:05;100769.88;;;22.41;40.94
54194;BME280;40102;50.906;6.972;2023-06-14T04:40:34;100779.59;;;22.44;41.32
54194;BME280;40102;50.906;6.972;2023-06-14T04:43:04;100777.22;;;22.23;42.12
54194;BME280;40102;50.906;6.972;2023-06-14T04:45:30;100786.03;;;21.99;42.57
54194;BME280;40102;50.906;6.972;2023-06-14T04:47:58;100782.78;;;21.95;42.43
54194;BME280;40102;50.906;6.972;2023-06-14T04:50:24;100787.59;;;22.02;42.61
54194;BME280;40102;50.906;6.972;2023-06-14T04:52:50;100786.84;;;22.09;42.63
54194;BME280;40102;50.906;6.972;2023-06-14T04:55:17;100793.75;;;22.04;43.00
54194;BME280;40102;50.906;6.972;2023-06-14T04:57:44;100785.44;;;22.05;43.21
54194;BME280;40102;50.906;6.972;2023-06-14T05:00:10;100785.50;;;22.13;43.31
54194;BME280;40102;50.906;6.972;2023-06-14T05:02:37;100791.53;;;22.25;43.04
54194;BME280;40102;50.906;6.972;2023-06-14T05:05:03;100784.28;;;22.34;43.18
54194;BME280;40102;50.906;6.972;2023-06-14T05:07:29;100799.84;;;22.41;42.77
54194;BME280;40102;50.906;6.972;2023-06-14T05:09:55;100798.66;;;22.44;42.22
54194;BME280;40102;50.906;6.972;2023-06-14T05:12:20;100804.28;;;22.42;41.75
54194;BME280;40102;50.906;6.972;2023-06-14T05:14:46;100817.41;;;22.47;41.10
54194;BME280;40102;50.906;6.972;2023-06-14T05:17:11;100810.25;;;22.46;40.90
54194;BME280;40102;50.906;6.972;2023-06-14T05:19:37;100813.69;;;22.48;40.66
54194;BME280;40102;50.906;6.972;2023-06-14T05:22:02;100808.34;;;22.38;40.21
54194;BME280;40102;50.906;6.972;2023-06-14T05:24:28;100811.69;;;22.32;40.17
54194;BME280;40102;50.906;6.972;2023-06-14T05:26:55;100815.28;;;22.33;40.05
54194;BME280;40102;50.906;6.972;2023-06-14T05:29:21;100807.75;;;22.26;40.12
54194;BME280;40102;50.906;6.972;2023-06-14T05:31:46;100802.69;;;22.14;40.43
54194;BME280;40102;50.906;6.972;2023-06-14T05:34:12;100806.06;;;22.08;40.86
54194;BME280;40102;50.906;6.972;2023-06-14T05:36:40;100807.66;;;22.01;40.65
54194;BME280;40102;50.906;6.972;2023-06-14T05:39:05;100806.66;;;22.02;40.53
54194;BME280;40102;50.906;6.972;2023-06-14T05:41:32;100810.38;;;22.01;40.81
54194;BME280;40102;50.906;6.972;2023-06-14T05:43:57;100816.78;;;21.91;40.50
54194;BME280;40102;50.906;6.972;2023-06-14T05:46:23;100818.09;;;21.70;40.72
54194;BME280;40102;50.906;6.972;2023-06-14T05:48:52;100821.19;;;21.57;41.00
54194;BME280;40102;50.906;6.972;2023-06-14T05:51:18;100824.47;;;21.60;40.57
54194;BME280;40102;50.906;6.972;2023-06-14T05:53:45;100830.00;;;21.69;40.71
54194;BME280;40102;50.906;6.972;2023-06-14T05:56:11;100825.56;;;21.85;40.19
54194;BME280;40102;50.906;6.972;2023-06-14T05:58:36;100832.06;;;22.02;39.89
54194;BME280;40102;50.906;6.972;2023-06-14T06:01:02;100827.06;;;22.15;39.38
54194;BME280;40102;50.906;6.972;2023-06-14T06:03:27;100830.38;;;22.27;38.98
54194;BME280;40102;50.906;6.972;2023-06-14T06:05:54;100840.97;;;22.30;38.83
54194;BME280;40102;50.906;6.972;2023-06-14T06:08:20;100839.31;;;22.37;38.55
54194;BME280;40102;50.906;6.972;2023-06-14T06:10:46;100844.06;;;22.35;38.89
54194;BME280;40102;50.906;6.972;2023-06-14T06:13:11;100845.78;;;22.36;38.34
54194;BME280;40102;50.906;6.972;2023-06-14T06:15:36;100842.16;;;22.27;38.20
54194;BME280;40102;50.906;6.972;2023-06-14T06:18:02;100845.13;;;22.16;37.87
54194;BME280;40102;50.906;6.972;2023-06-14T06:20:29;100849.38;;;22.01;38.14
54194;BME280;40102;50.906;6.972;2023-06-14T06:22:56;100840.13;;;21.94;38.44
54194;BME280;40102;50.906;6.972;2023-06-14T06:25:22;100842.53;;;21.97;38.58
54194;BME280;40102;50.906;6.972;2023-06-14T06:27:48;100842.69;;;21.95;38.68
54194;BME280;40102;50.906;6.972;2023-06-14T06:30:14;100846.25;;;21.96;38.92
54194;BME280;40102;50.906;6.972;2023-06-14T06:32:42;100844.34;;;22.06;38.71
54194;BME280;40102;50.906;6.972;2023-06-14T06:35:07;100839.91;;;22.05;38.78
54194;BME280;40102;50.906;6.972;2023-06-14T06:37:34;100854.13;;;21.99;38.80
54194;BME280;40102;50.906;6.972;2023-06-14T06:39:59;100840.91;;;22.04;38.85
54194;BME280;40102;50.906;6.972;2023-06-14T06:42:25;100846.75;;;22.09;38.69
54194;BME280;40102;50.906;6.972;2023-06-14T06:44:50;100854.13;;;21.99;39.35
54194;BME280;40102;50.906;6.972;2023-06-14T06:47:15;100856.69;;;22.01;39.28
54194;BME280;40102;50.906;6.972;2023-06-14T06:49:41;100862.44;;;21.97;39.14
54194;BME280;40102;50.906;6.972;2023-06-14T06:52:06;100866.34;;;21.95;39.20
54194;BME280;40102;50.906;6.972;2023-06-14T06:54:41;100863.22;;;21.90;39.03
54194;BME280;40102;50.906;6.972;2023-06-14T06:57:07;100866.78;;;21.73;39.82
54194;BME280;40102;50.906;6.972;2023-06-14T06:59:33;100876.56;;;21.65;39.93
54194;BME280;40102;50.906;6.972;2023-06-14T07:01:58;100869.47;;;21.55;40.14
54194;BME280;40102;50.906;6.972;2023-06-14T07:04:24;100868.31;;;21.57;40.38
54194;BME280;40102;50.906;6.972;2023-06-14T07:06:50;100875.72;;;21.65;40.31
54194;BME280;40102;50.906;6.972;2023-06-14T07:09:15;100866.16;;;21.61;40.02
54194;BME280;40102;50.906;6.972;2023-06-14T07:11:44;100874.56;;;21.67;40.52
54194;BME280;40102;50.906;6.972;2023-06-14T07:14:10;100869.75;;;21.79;40.26
54194;BME280;40102;50.906;6.972;2023-06-14T07:16:37;100869.13;;;21.85;40.18
54194;BME280;40102;50.906;6.972;2023-06-14T07:19:03;100853.88;;;21.92;40.08
54194;BME280;40102;50.906;6.972;2023-06-14T07:21:28;100866.53;;;22.11;39.80
54194;BME280;40102;50.906;6.972;2023-06-14T07:23:54;100873.97;;;22.27;39.51
54194;BME280;40102;50.906;6.972;2023-06-14T07:26:20;100861.66;;;22.41;38.92
54194;BME280;40102;50.906;6.972;2023-06-14T07:28:49;100873.25;;;22.43;39.07
54194;BME280;40102;50.906;6.972;2023-06-14T07:31:17;100871.38;;;22.43;38.84
54194;BME280;40102;50.906;6.972;2023-06-14T07:33:44;100871.47;;;22.34;38.95
54194;BME280;40102;50.906;6.972;2023-06-14T07:36:10;100874.28;;;22.24;39.40
54194;BME280;40102;50.906;6.972;2023-06-14T07:38:35;100878.09;;;22.31;39.54
54194;BME280;40102;50.906;6.972;2023-06-14T07:41:02;100872.34;;;22.34;39.02
54194;BME280;40102;50.906;6.972;2023-06-14T07:43:27;100866.88;;;22.34;39.31
54194;BME280;40102;50.906;6.972;2023-06-14T07:45:52;100870.22;;;22.46;39.19
54194;BME280;40102;50.906;6.972;2023-06-14T07:48:18;100867.22;;;22.57;38.74
54194;BME280;40102;50.906;6.972;2023-06-14T07:50:44;100868.00;;;22.67;38.17
54194;BME280;40102;50.906;6.972;2023-06-14T07:53:09;100863.78;;;22.73;38.03
54194;BME280;40102;50.906;6.972;2023-06-14T07:55:35;100868.75;;;22.77;36.17
54194;BME280;40102;50.906;6.972;2023-06-14T07:58:03;100864.25;;;22.68;35.13
54194;BME280;40102;50.906;6.972;2023-06-14T08:00:28;100868.47;;;22.62;34.76
54194;BME280;40102;50.906;6.972;2023-06-14T08:02:53;100864.50;;;22.57;34.03
54194;BME280;40102;50.906;6.972;2023-06-14T08:05:23;100867.41;;;22.55;34.13
54194;BME280;40102;50.906;6.972;2023-06-14T08:07:49;100854.03;;;22.44;33.83
54194;BME280;40102;50.906;6.972;2023-06-14T08:10:14;100857.59;;;22.45;34.16
54194;BME280;40102;50.906;6.972;2023-06-14T08:12:40;100867.13;;;22.41;34.04
54194;BME280;40102;50.906;6.972;2023-06-14T08:15:05;100862.03;;;22.46;33.79
54194;BME280;40102;50.906;6.972;2023-06-14T08:17:31;100857.66;;;22.53;33.75
54194;BME280;40102;50.906;6.972;2023-06-14T08:19:56;100858.91;;;22.58;33.31
54194;BME280;40102;50.906;6.972;2023-06-14T08:22:22;100851.09;;;22.63;33.14
54194;BME280;40102;50.906;6.972;2023-06-14T08:24:49;100857.09;;;22.67;33.29
54194;BME280;40102;50.906;6.972;2023-06-14T08:27:14;100861.75;;;22.75;33.29
54194;BME280;40102;50.906;6.972;2023-06-14T08:29:40;100856.81;;;22.78;32.72
54194;BME280;40102;50.906;6.972;2023-06-14T08:32:07;100861.41;;;22.78;32.98
54194;BME280;40102;50.906;6.972;2023-06-14T08:34:32;100871.03;;;22.82;32.29
54194;BME280;40102;50.906;6.972;2023-06-14T08:36:57;100864.06;;;22.87;32.29
54194;BME280;40102;50.906;6.972;2023-06-14T08:39:23;100865.97;;;22.95;31.90
54194;BME280;40102;50.906;6.972;2023-06-14T08:41:48;100859.19;;;22.99;31.34
54194;BME280;40102;50.906;6.972;2023-06-14T08:44:16;100856.28;;;23.01;31.16
54194;BME280;40102;50.906;6.972;2023-06-14T08:46:42;100862.97;;;23.06;31.83
54194;BME280;40102;50.906;6.972;2023-06-14T08:49:11;100856.88;;;23.12;31.47
54194;BME280;40102;50.906;6.972;2023-06-14T08:51:37;100852.78;;;23.16;31.12
54194;BME280;40102;50.906;6.972;2023-06-14T08:54:03;100857.06;;;23.19;30.81
54194;BME280;40102;50.906;6.972;2023-06-14T08:56:29;100846.84;;;23.21;31.04
54194;BME280;40102;50.906;6.972;2023-06-14T08:58:56;100850.63;;;23.28;30.70
54194;BME280;40102;50.906;6.972;2023-06-14T09:01:23;100848.44;;;23.32;30.64
54194;BME280;40102;50.906;6.972;2023-06-14T09:03:49;100853.22;;;23.38;30.60
54194;BME280;40102;50.906;6.972;2023-06-14T09:06:14;100856.47;;;23.41;30.49
54194;BME280;40102;50.906;6.972;2023-06-14T09:08:44;100840.28;;;23.40;30.84
54194;BME280;40102;50.906;6.972;2023-06-14T09:11:11;100848.81;;;23.45;30.46
54194;BME280;40102;50.906;6.972;2023-06-14T09:13:41;100847.47;;;23.49;30.94
54194;BME280;40102;50.906;6.972;2023-06-14T09:16:07;100843.53;;;23.43;30.78
54194;BME280;40102;50.906;6.972;2023-06-14T09:18:37;100852.59;;;23.52;30.79
54194;BME280;40102;50.906;6.972;2023-06-14T09:21:06;100842.41;;;23.54;30.68
54194;BME280;40102;50.906;6.972;2023-06-14T09:23:46;100848.38;;;23.57;30.33
54194;BME280;40102;50.906;6.972;2023-06-14T09:26:17;100845.47;;;23.59;30.78
54194;BME280;40102;50.906;6.972;2023-06-14T09:28:48;100850.78;;;23.61;30.61
54194;BME280;40102;50.906;6.972;2023-06-14T09:31:15;100852.16;;;23.65;30.78
54194;BME280;40102;50.906;6.972;2023-06-14T09:33:43;100850.09;;;23.67;30.71
54194;BME280;40102;50.906;6.972;2023-06-14T09:36:21;100854.91;;;23.73;30.38
54194;BME280;40102;50.906;6.972;2023-06-14T09:38:54;100853.72;;;23.75;30.81
54194;BME280;40102;50.906;6.972;2023-06-14T09:41:20;100856.09;;;23.78;30.25
54194;BME280;40102;50.906;6.972;2023-06-14T09:43:47;100854.56;;;23.76;30.52
54194;BME280;40102;50.906;6.972;2023-06-14T09:46:13;100855.41;;;23.76;30.55
54194;BME280;40102;50.906;6.972;2023-06-14T09:48:38;100863.13;;;23.81;30.20
54194;BME280;40102;50.906;6.972;2023-06-14T09:51:10;100861.59;;;23.86;29.70
54194;BME280;40102;50.906;6.972;2023-06-14T09:53:37;100862.59;;;23.85;30.00
54194;BME280;40102;50.906;6.972;2023-06-14T09:56:05;100867.56;;;23.90;29.78
54194;BME280;40102;50.906;6.972;2023-06-14T09:58:32;100861.94;;;23.92;30.03
54194;BME280;40102;50.906;6.972;2023-06-14T10:01:00;100857.34;;;23.92;30.25
54194;BME280;40102;50.906;6.972;2023-06-14T10:03:30;100846.22;;;23.94;30.21
54194;BME280;40102;50.906;6.972;2023-06-14T10:05:58;100856.66;;;23.98;30.79
54194;BME280;40102;50.906;6.972;2023-06-14T10:08:28;100852.72;;;24.01;30.96
54194;BME280;40102;50.906;6.972;2023-06-14T10:10:55;100852.06;;;24.07;31.41
54194;BME280;40102;50.906;6.972;2023-06-14T10:13:21;100849.16;;;24.08;31.25
54194;BME280;40102;50.906;6.972;2023-06-14T10:16:12;100852.75;;;24.09;31.21
54194;BME280;40102;50.906;6.972;2023-06-14T10:21:51;100841.31;;;24.13;31.17
54194;BME280;40102;50.906;6.972;2023-06-14T10:24:30;100841.81;;;24.17;31.15
54194;BME280;40102;50.906;6.972;2023-06-14T10:26:58;100843.34;;;24.19;31.20
54194;BME280;40102;50.906;6.972;2023-06-14T10:29:25;100846.78;;;24.21;30.62
54194;BME280;40102;50.906;6.972;2023-06-14T10:31:56;100841.31;;;24.21;30.35
54194;BME280;40102;50.906;6.972;2023-06-14T10:34:29;100845.06;;;24.20;30.52
54194;BME280;40102;50.906;6.972;2023-06-14T10:39:48;100848.84;;;24.28;29.91
54194;BME280;40102;50.906;6.972;2023-06-14T10:42:15;100842.88;;;24.32;29.79
54194;BME280;40102;50.906;6.972;2023-06-14T10:44:45;100838.94;;;24.35;29.97
54194;BME280;40102;50.906;6.972;2023-06-14T10:47:34;100834.50;;;24.34;29.77
54194;BME280;40102;50.906;6.972;2023-06-14T10:50:05;100841.66;;;24.35;30.06
54194;BME280;40102;50.906;6.972;2023-06-14T10:52:39;100839.28;;;24.32;30.07
54194;BME280;40102;50.906;6.972;2023-06-14T10:55:13;100839.97;;;24.34;30.01
54194;BME280;40102;50.906;6.972;2023-06-14T10:57:47;100845.25;;;24.35;30.30
54194;BME280;40102;50.906;6.972;2023-06-14T11:00:18;100842.88;;;24.40;30.88
54194;BME280;40102;50.906;6.972;2023-06-14T11:05:54;100842.53;;;24.43;30.60
54194;BME280;40102;50.906;6.972;2023-06-14T11:11:22;100844.56;;;24.49;30.70
54194;BME280;40102;50.906;6.972;2023-06-14T11:13:52;100833.13;;;24.46;30.49
54194;BME280;40102;50.906;6.972;2023-06-14T11:16:18;100835.84;;;24.46;30.43
54194;BME280;40102;50.906;6.972;2023-06-14T11:18:46;100836.19;;;24.51;30.75
54194;BME280;40102;50.906;6.972;2023-06-14T11:21:16;100830.19;;;24.56;30.71
54194;BME280;40102;50.906;6.972;2023-06-14T11:23:49;100824.91;;;24.62;31.33
54194;BME280;40102;50.906;6.972;2023-06-14T11:26:15;100834.09;;;24.77;32.64
54194;BME280;40102;50.906;6.972;2023-06-14T11:28:41;100837.81;;;24.93;32.24
54194;BME280;40102;50.906;6.972;2023-06-14T11:31:07;100835.81;;;24.78;32.00
54194;BME280;40102;50.906;6.972;2023-06-14T11:33:33;100844.56;;;24.58;32.68
54194;BME280;40102;50.906;6.972;2023-06-14T11:36:02;100831.41;;;24.37;32.04
54194;BME280;40102;50.906;6.972;2023-06-14T11:38:27;100834.81;;;24.22;32.29
54194;BME280;40102;50.906;6.972;2023-06-14T11:40:52;100815.50;;;24.16;33.05
54194;BME280;40102;50.906;6.972;2023-06-14T11:43:18;100818.75;;;24.19;32.94
54194;BME280;40102;50.906;6.972;2023-06-14T11:45:48;100822.53;;;24.27;34.09
54194;BME280;40102;50.906;6.972;2023-06-14T11:48:13;100825.25;;;24.43;34.25
54194;BME280;40102;50.906;6.972;2023-06-14T11:50:39;100826.59;;;24.63;34.50
54194;BME280;40102;50.906;6.972;2023-06-14T11:53:04;100824.50;;;24.81;33.30
54194;BME280;40102;50.906;6.972;2023-06-14T11:55:38;100821.94;;;24.88;32.18
54194;BME280;40102;50.906;6.972;2023-06-14T11:58:08;100810.28;;;24.94;32.70
54194;BME280;40102;50.906;6.972;2023-06-14T12:00:37;100819.00;;;25.06;32.58
54194;BME280;40102;50.906;6.972;2023-06-14T12:03:03;100810.94;;;25.12;32.28
54194;BME280;40102;50.906;6.972;2023-06-14T12:05:28;100810.38;;;25.17;32.11
54194;BME280;40102;50.906;6.972;2023-06-14T12:08:02;100816.78;;;25.40;32.55
54194;BME280;40102;50.906;6.972;2023-06-14T12:10:29;100809.88;;;25.53;32.12
54194;BME280;40102;50.906;6.972;2023-06-14T12:12:58;100811.03;;;25.58;31.72
54194;BME280;40102;50.906;6.972;2023-06-14T12:15:24;100812.25;;;25.56;31.35
54194;BME280;40102;50.906;6.972;2023-06-14T12:17:53;100820.78;;;25.30;31.34
54194;BME280;40102;50.906;6.972;2023-06-14T12:20:20;100821.84;;;25.21;31.80
54194;BME280;40102;50.906;6.972;2023-06-14T12:22:58;100818.09;;;25.13;31.62
54194;BME280;40102;50.906;6.972;2023-06-14T12:25:34;100815.03;;;25.08;32.11
54194;BME280;40102;50.906;6.972;2023-06-14T12:28:07;100820.31;;;25.18;32.55
54194;BME280;40102;50.906;6.972;2023-06-14T12:30:34;100813.53;;;25.37;32.32
54194;BME280;40102;50.906;6.972;2023-06-14T12:33:02;100819.06;;;25.60;32.22
54194;BME280;40102;50.906;6.972;2023-06-14T12:35:27;100820.69;;;25.77;32.13
54194;BME280;40102;50.906;6.972;2023-06-14T12:37:53;100825.41;;;25.91;31.06
54194;BME280;40102;50.906;6.972;2023-06-14T12:40:18;100831.19;;;25.96;31.07
54194;BME280;40102;50.906;6.972;2023-06-14T12:42:44;100829.84;;;25.92;31.28
54194;BME280;40102;50.906;6.972;2023-06-14T12:45:11;100823.63;;;25.98;30.90
54194;BME280;40102;50.906;6.972;2023-06-14T12:47:37;100825.72;;;26.11;31.64
54194;BME280;40102;50.906;6.972;2023-06-14T12:50:03;100827.97;;;26.07;30.81
54194;BME280;40102;50.906;6.972;2023-06-14T12:52:28;100832.91;;;26.12;30.74
54194;BME280;40102;50.906;6.972;2023-06-14T12:54:53;100832.66;;;26.22;29.99
54194;BME280;40102;50.906;6.972;2023-06-14T12:57:23;100832.53;;;26.15;29.34
54194;BME280;40102;50.906;6.972;2023-06-14T12:59:48;100830.41;;;26.02;29.55
54194;BME280;40102;50.906;6.972;2023-06-14T13:02:18;100831.75;;;26.06;30.36
54194;BME280;40102;50.906;6.972;2023-06-14T13:04:43;100837.34;;;26.13;30.25
54194;BME280;40102;50.906;6.972;2023-06-14T13:07:09;100832.72;;;26.13;30.24
54194;BME280;40102;50.906;6.972;2023-06-14T13:09:36;100834.56;;;26.21;29.09